• Join FlightAware (Why Join?)
  • Login
  • US Flag 
06:09AM EDT


 

Airport Tracker/Info


-or-


 

Live Flight TrackerFlight Track Log ✈ N325WP ✈ 22-Jul-2013 ✈ KCHA - KMTV

Flight Track Log - Related Links

Times and Time Zones

All times are in EDT time to prevent confusion due to time zone crossing. See the N325WP flight status page for this flight to view local times or setup timezone preferences in your user account.

Time Position Orientation Groundspeed Altitude Reporting Facility
EDT Latitude Longitude Course Direction KTS MPH feet Rate Location/Type
06:00PM 34.9667 -85.1261 77° East 263 303 6,500  Level Atlanta Center
06:01PM 34.9944 -85.0453 67° East 271 312 8,800 1,740 Climbing Atlanta Center
06:02PM 35.0264 -84.9544 67° East 286 329 10,000 900 Climbing Atlanta Center
06:03PM 35.0603 -84.8608 66° East 296 341 10,700 1,320 Climbing Atlanta Center
06:04PM 35.2092 -84.6305 70° East  Level FlightAware Approximate
06:04PM 35.0922 -84.7622 68° East 302 348 12,700  Level Atlanta Center
06:05PM 35.1261 -84.6661 67° East 302 348 14,700 1,920 Climbing Atlanta Center
06:06PM 35.1600 -84.5647 68° East 307 353 16,600 1,920 Climbing Atlanta Center
06:07PM 35.1939 -84.4658 67° East 313 360 18,600 1,740 Climbing Atlanta Center
06:08PM 35.2275 -84.3692 67° East 313 360 20,100 1,500 Climbing Atlanta Center
06:09PM 35.2633 -84.2678 67° East 313 360 21,600 1,440 Climbing Atlanta Center
06:10PM 35.2989 -84.1661 67° East 313 360 23,000 1,140 Climbing Atlanta Center
06:11PM 35.3344 -84.0567 68° East 319 367 23,900 900 Climbing Atlanta Center
06:12PM 35.3719 -83.9469 67° East 336 387 24,900 960 Climbing Atlanta Center
06:13PM 35.4094 -83.8375 67° East 341 392 25,900 960 Climbing Atlanta Center
06:14PM 35.4467 -83.7278 67° East 341 392 26,900 540 Climbing Atlanta Center
06:15PM 35.4858 -83.6103 68° East 351 404 27,000  Climbing Atlanta Center
06:16PM 35.5272 -83.4928 67° East 356 410 27,000  Level Atlanta Center
06:17PM 35.5661 -83.3725 68° East 368 423 27,000  Level Atlanta Center
06:18PM 35.6072 -83.2519 67° East 373 429 27,000  Level Atlanta Center
06:19PM 35.6481 -83.1264 68° East 387 445 27,000  Level Atlanta Center
06:20PM 35.6889 -83.0058 67° East 392 451 27,000  Level Atlanta Center
06:21PM 35.7294 -82.8825 68° East 392 451 27,000  Level Atlanta Center
06:22PM 35.7700 -82.7564 68° East 392 451 27,000  Level Atlanta Center
06:23PM 35.8083 -82.6331 69° East 392 451 27,000  Level Atlanta Center
06:24PM 35.8506 -82.5092 67° East 392 451 27,000  Level Atlanta Center
06:25PM 35.8906 -82.3856 68° East 387 445 27,000  Level Atlanta Center
06:26PM 35.9306 -82.2617 68° East 387 445 27,000  Level Atlanta Center
06:27PM 35.9728 -82.1400 67° East 387 445 27,000 -60 Level Atlanta Center
06:28PM 36.0122 -82.0133 69° East 392 451 26,900 -300 Descending Atlanta Center
06:29PM 36.0539 -81.8839 68° East 398 458 26,500 -600 Descending Atlanta Center
06:30PM 36.0953 -81.7544 68° East 403 464 25,800 -900 Descending Atlanta Center
06:31PM 36.1389 -81.6244 67° East 403 464 24,700 -1,200 Descending Atlanta Center
06:32PM 36.1836 -81.4739 70° East 414 476 23,500 -1,200 Descending Atlanta Center
06:33PM 36.2247 -81.3414 69° East 414 476 22,300 -1,260 Descending Atlanta Center
06:34PM 36.2656 -81.2114 69° East 414 476 21,000 -780 Descending Atlanta Center
06:35PM 36.3044 -81.0864 69° East 404 465 20,800 -600 Descending Atlanta Center
06:36PM 36.3431 -80.9636 69° East 392 451 19,900 -1,260 Descending Atlanta Center
06:37PM 36.3794 -80.8411 70° East 380 437 18,300 -1,860 Descending Atlanta Center
06:38PM 36.4181 -80.7208 68° East 373 429 16,200 -2,040 Descending Atlanta Center
06:39PM 36.4486 -80.6164 70° East 368 423 14,300 -2,220 Descending Atlanta Center
06:40PM 36.4789 -80.5092 71° East 347 399 11,800 -2,460 Descending Atlanta Center
06:41PM 36.5114 -80.4044 69° East 330 380 9,400 -2,280 Descending Atlanta Center
06:42PM 36.5375 -80.3025 72° East 316 364 7,300 -2,220 Descending Atlanta Center
06:43PM 36.5550 -80.1958 78° East 298 343 5,000 -1,800 Descending Atlanta Center
06:44PM 36.5608 -80.1206 84° East 285 328 3,800 3,000 Descending Atlanta Center
06:45PM 36.5783 -80.0111 79° East 285 328 11,000 3,600 Climbing Atlanta Center
06:46PM 36.5917 -79.9122 80° East 285 328 11,000  Level Atlanta Center